createdAt,value
2023-04-10T00:02:00.484Z,6.83
2023-04-10T00:04:28.320Z,7.00
2023-04-10T00:06:55.438Z,6.77
2023-04-10T00:09:21.983Z,5.87
2023-04-10T00:11:48.485Z,6.33
2023-04-10T00:14:14.925Z,6.50
2023-04-10T00:16:41.485Z,6.10
2023-04-10T00:19:08.170Z,6.10
2023-04-10T00:21:34.637Z,5.60
2023-04-10T00:24:01.045Z,7.13
2023-04-10T00:26:27.525Z,6.53
2023-04-10T00:28:54.065Z,5.83
2023-04-10T00:31:20.808Z,6.53
2023-04-10T00:33:47.308Z,6.97
2023-04-10T00:36:13.870Z,6.70
2023-04-10T00:38:40.477Z,6.23
2023-04-10T00:41:07.178Z,6.40
2023-04-10T00:43:33.813Z,6.23
2023-04-10T00:46:00.779Z,6.33
2023-04-10T00:48:27.600Z,5.80
2023-04-10T00:50:54.308Z,6.30
2023-04-10T00:53:22.027Z,6.90
2023-04-10T00:55:50.170Z,7.03
2023-04-10T00:58:16.682Z,5.80
2023-04-10T01:00:43.145Z,6.27
2023-04-10T01:03:12.946Z,6.50
2023-04-10T01:05:44.654Z,6.60
2023-04-10T01:08:38.424Z,6.53
2023-04-10T01:11:18.788Z,6.20
2023-04-10T01:13:55.384Z,6.00
2023-04-10T01:16:28.946Z,6.70
2023-04-10T01:19:33.330Z,6.83
2023-04-10T01:22:03.846Z,7.63
2023-04-10T01:24:59.792Z,7.33
2023-04-10T01:28:04.003Z,7.73
2023-04-10T01:30:32.142Z,7.00
2023-04-10T01:33:01.997Z,7.50
2023-04-10T01:35:30.486Z,6.90
2023-04-10T01:37:59.433Z,7.47
2023-04-10T01:40:27.439Z,6.80
2023-04-10T01:42:56.774Z,6.60
2023-04-10T01:45:28.507Z,7.27
2023-04-10T01:47:58.427Z,7.60
2023-04-10T01:50:28.047Z,8.07
2023-04-10T01:52:54.997Z,8.10
2023-04-10T01:55:22.213Z,7.73
2023-04-10T01:57:49.274Z,8.40
2023-04-10T02:00:16.865Z,7.97
2023-04-10T02:02:44.534Z,7.60
2023-04-10T02:05:11.476Z,7.50
2023-04-10T02:08:02.073Z,8.03
2023-04-10T02:10:35.747Z,7.87
2023-04-10T02:13:07.150Z,7.10
2023-04-10T02:15:35.527Z,7.73
2023-04-10T02:18:08.280Z,8.07
2023-04-10T02:20:34.913Z,8.47
2023-04-10T02:23:03.799Z,8.10
2023-04-10T02:25:34.954Z,8.17
2023-04-10T02:28:05.726Z,8.80
2023-04-10T02:30:33.136Z,7.63
2023-04-10T02:32:59.929Z,8.00
2023-04-10T02:35:26.614Z,8.43
2023-04-10T02:37:53.067Z,8.17
2023-04-10T02:40:19.608Z,8.50
2023-04-10T02:42:46.256Z,8.13
2023-04-10T02:45:12.747Z,8.17
2023-04-10T02:47:39.238Z,9.23
2023-04-10T02:50:06.126Z,9.60
2023-04-10T02:52:32.554Z,8.40
2023-04-10T02:54:59.017Z,9.80
2023-04-10T02:57:26.244Z,8.43
2023-04-10T02:59:53.514Z,8.80
2023-04-10T03:02:20.111Z,8.37
2023-04-10T03:04:46.669Z,8.87
2023-04-10T03:07:13.189Z,8.10
2023-04-10T03:09:39.656Z,8.43
2023-04-10T03:12:06.330Z,8.10
2023-04-10T03:14:32.806Z,9.40
2023-04-10T03:16:59.222Z,8.40
2023-04-10T03:19:26.677Z,8.90
2023-04-10T03:21:53.614Z,8.53
2023-04-10T03:24:20.712Z,8.37
2023-04-10T03:26:47.380Z,8.33
2023-04-10T03:29:18.780Z,7.57
2023-04-10T03:31:45.984Z,9.47
2023-04-10T03:34:12.551Z,8.60
2023-04-10T03:36:39.047Z,8.90
2023-04-10T03:39:05.876Z,8.00
2023-04-10T03:41:32.411Z,8.93
2023-04-10T03:43:58.919Z,8.37
2023-04-10T03:46:25.597Z,8.20
2023-04-10T03:48:53.904Z,8.03
2023-04-10T03:51:20.563Z,8.27
2023-04-10T03:53:47.224Z,8.07
2023-04-10T03:56:13.681Z,7.83
2023-04-10T03:58:40.200Z,7.37
2023-04-10T04:01:07.735Z,7.83
2023-04-10T04:03:35.839Z,7.30
2023-04-10T04:06:02.420Z,7.90
2023-04-10T04:08:28.863Z,8.13
2023-04-10T04:10:55.351Z,8.70
2023-04-10T04:13:21.816Z,7.10
2023-04-10T04:15:48.302Z,8.77
2023-04-10T04:18:14.812Z,8.00
2023-04-10T04:20:41.251Z,7.23
2023-04-10T04:23:07.703Z,7.80
2023-04-10T04:25:34.164Z,8.03
2023-04-10T04:28:01.419Z,8.03
2023-04-10T04:30:27.878Z,7.33
2023-04-10T04:32:54.455Z,7.33
2023-04-10T04:35:21.976Z,7.17
2023-04-10T04:37:48.427Z,8.03
2023-04-10T04:40:14.969Z,7.50
2023-04-10T04:42:41.366Z,7.77
2023-04-10T04:45:08.464Z,7.27
2023-04-10T04:47:34.954Z,8.03
2023-04-10T04:50:01.435Z,7.30
2023-04-10T04:52:28.032Z,7.93
2023-04-10T04:54:54.451Z,7.43
2023-04-10T04:57:21.282Z,7.83
2023-04-10T04:59:47.679Z,7.50
2023-04-10T05:02:14.231Z,7.73
2023-04-10T05:04:40.812Z,8.33
2023-04-10T05:07:07.304Z,8.60
2023-04-10T05:09:33.797Z,8.27
2023-04-10T05:12:00.375Z,8.10
2023-04-10T05:14:26.851Z,8.10
2023-04-10T05:16:53.312Z,8.00
2023-04-10T05:19:21.061Z,7.90
2023-04-10T05:21:47.555Z,7.70
2023-04-10T05:24:13.964Z,8.00
2023-04-10T05:26:42.553Z,8.00
2023-04-10T05:29:09.014Z,7.93
2023-04-10T05:31:35.619Z,7.87
2023-04-10T05:34:02.125Z,7.87
2023-04-10T05:36:28.540Z,7.70
2023-04-10T05:38:55.165Z,7.90
2023-04-10T05:41:21.845Z,7.97
2023-04-10T05:43:48.341Z,7.47
2023-04-10T05:46:14.952Z,8.50
2023-04-10T05:48:41.356Z,8.00
2023-04-10T05:51:07.931Z,7.17
2023-04-10T05:53:34.516Z,7.07
2023-04-10T05:56:02.069Z,8.03
2023-04-10T05:58:29.086Z,7.70
2023-04-10T06:00:56.278Z,7.20
2023-04-10T06:03:23.970Z,6.90
2023-04-10T06:05:50.646Z,6.53
2023-04-10T06:08:17.101Z,7.00
2023-04-10T06:10:43.620Z,7.60
2023-04-10T06:13:11.246Z,7.37
2023-04-10T06:15:38.111Z,7.47
2023-04-10T06:18:04.674Z,7.67
2023-04-10T06:20:31.208Z,7.70
2023-04-10T06:22:58.948Z,7.27
2023-04-10T06:25:25.363Z,7.37
2023-04-10T06:27:51.953Z,8.00
2023-04-10T06:30:18.436Z,8.00
2023-04-10T06:32:44.911Z,6.80
2023-04-10T06:35:12.536Z,7.13
2023-04-10T06:37:38.976Z,7.67
2023-04-10T06:40:07.803Z,7.30
2023-04-10T06:42:35.331Z,6.40
2023-04-10T06:45:03.152Z,8.10
2023-04-10T06:47:30.375Z,7.33
2023-04-10T06:49:56.913Z,7.27
2023-04-10T06:52:23.505Z,7.43
2023-04-10T06:54:49.929Z,7.03
2023-04-10T06:57:16.901Z,7.03
2023-04-10T06:59:43.355Z,6.83
2023-04-10T07:02:09.955Z,6.97
2023-04-10T07:04:36.683Z,6.87
2023-04-10T07:07:03.724Z,6.90
2023-04-10T07:09:30.685Z,6.37
2023-04-10T07:11:57.167Z,6.70
2023-04-10T07:14:23.955Z,6.87
2023-04-10T07:16:50.534Z,6.40
2023-04-10T07:19:17.083Z,6.13
2023-04-10T07:21:43.583Z,6.43
2023-04-10T07:24:10.108Z,6.03
2023-04-10T07:26:36.564Z,7.00
2023-04-10T07:29:03.144Z,6.50
2023-04-10T07:31:29.663Z,6.73
2023-04-10T07:33:56.381Z,7.70
2023-04-10T07:36:22.822Z,6.93
2023-04-10T07:38:49.306Z,6.30
2023-04-10T07:41:15.786Z,6.13
2023-04-10T07:43:42.250Z,6.30
2023-04-10T07:46:08.814Z,6.73
2023-04-10T07:48:35.241Z,6.43
2023-04-10T07:51:02.367Z,6.40
2023-04-10T07:53:28.929Z,7.00
2023-04-10T07:55:55.329Z,6.30
2023-04-10T07:58:21.842Z,7.20
2023-04-10T08:00:48.493Z,6.37
2023-04-10T08:03:16.003Z,6.23
2023-04-10T08:05:42.644Z,6.63
2023-04-10T08:08:09.090Z,5.67
2023-04-10T08:10:39.313Z,5.90
2023-04-10T08:13:06.290Z,5.80
2023-04-10T08:15:33.288Z,6.43
2023-04-10T08:17:59.923Z,5.73
2023-04-10T08:20:26.599Z,5.70
2023-04-10T08:22:54.217Z,5.17
2023-04-10T08:25:20.850Z,5.33
2023-04-10T08:27:47.302Z,5.73
2023-04-10T08:30:13.905Z,5.30
2023-04-10T08:32:40.676Z,5.43
2023-04-10T08:35:07.645Z,5.10
2023-04-10T08:37:34.087Z,5.07
2023-04-10T08:40:00.556Z,5.50
2023-04-10T08:42:27.433Z,4.97
2023-04-10T08:44:54.045Z,5.00
2023-04-10T08:47:21.639Z,5.03
2023-04-10T08:49:56.297Z,5.30
2023-04-10T08:52:25.336Z,4.90
2023-04-10T08:54:55.130Z,4.47
2023-04-10T08:57:22.348Z,4.30
2023-04-10T08:59:50.271Z,5.00
2023-04-10T09:02:17.048Z,4.40
2023-04-10T09:04:49.048Z,4.97
2023-04-10T09:07:16.416Z,4.20
2023-04-10T09:09:43.329Z,4.70
2023-04-10T09:12:10.851Z,5.20
2023-04-10T09:14:37.824Z,4.80
2023-04-10T09:17:19.337Z,4.87
2023-04-10T09:19:55.983Z,4.23
2023-04-10T09:22:33.614Z,4.23
2023-04-10T09:25:01.195Z,4.77
2023-04-10T09:27:32.803Z,5.00
2023-04-10T09:29:59.384Z,4.30
2023-04-10T09:32:43.493Z,4.43
2023-04-10T09:35:15.186Z,4.43
2023-04-10T09:37:44.962Z,4.13
2023-04-10T09:40:25.224Z,4.63
2023-04-10T09:42:52.602Z,4.07
2023-04-10T09:45:20.627Z,4.37
2023-04-10T09:48:07.468Z,3.87
2023-04-10T09:50:38.028Z,4.47
2023-04-10T09:53:06.258Z,6.30
2023-04-10T09:55:35.833Z,5.53
2023-04-10T09:58:04.436Z,6.63
2023-04-10T10:00:32.082Z,3.40
2023-04-10T10:03:01.198Z,3.70
2023-04-10T10:05:30.559Z,3.40
2023-04-10T10:07:58.093Z,3.50
2023-04-10T10:10:26.072Z,4.20
2023-04-10T10:12:57.239Z,3.40
2023-04-10T10:15:31.188Z,4.10
2023-04-10T10:18:10.504Z,4.10
2023-04-10T10:20:39.238Z,3.23
2023-04-10T10:23:08.136Z,3.33
2023-04-10T10:25:35.753Z,3.77
2023-04-10T10:28:04.361Z,3.60
2023-04-10T10:30:35.154Z,3.70
2023-04-10T10:33:05.987Z,3.57
2023-04-10T10:35:34.342Z,3.37
2023-04-10T10:38:02.525Z,3.70
2023-04-10T10:40:32.690Z,3.10
2023-04-10T10:43:46.424Z,3.80
2023-04-10T10:46:19.082Z,3.50
2023-04-10T10:48:59.379Z,3.37
2023-04-10T10:51:46.443Z,4.00
2023-04-10T10:54:37.525Z,3.07
2023-04-10T10:57:45.912Z,3.50
2023-04-10T11:00:12.796Z,3.40
2023-04-10T11:02:39.326Z,3.23
2023-04-10T11:05:06.267Z,3.47
2023-04-10T11:08:12.011Z,3.83
2023-04-10T11:11:03.834Z,3.93
2023-04-10T11:13:30.309Z,3.80
2023-04-10T11:15:57.749Z,3.40
2023-04-10T11:18:46.207Z,3.47
2023-04-10T11:21:16.798Z,3.43
2023-04-10T11:23:58.487Z,3.87
2023-04-10T11:26:43.183Z,6.10
2023-04-10T11:29:12.737Z,3.73
2023-04-10T11:31:39.514Z,3.30
2023-04-10T11:34:08.050Z,3.17
2023-04-10T11:36:38.369Z,3.07
2023-04-10T11:39:13.529Z,2.83
2023-04-10T11:41:47.415Z,3.00
2023-04-10T11:44:26.393Z,2.70
2023-04-10T11:46:54.044Z,3.60
2023-04-10T11:49:22.854Z,3.30
2023-04-10T11:51:51.398Z,2.60
2023-04-10T11:54:24.021Z,3.00
2023-04-10T11:56:59.126Z,2.97
2023-04-10T11:59:26.760Z,2.90
2023-04-10T12:02:23.553Z,2.80
2023-04-10T12:04:58.501Z,3.50
2023-04-10T12:07:29.475Z,4.67
2023-04-10T12:09:58.111Z,2.70
2023-04-10T12:12:37.793Z,2.90
2023-04-10T12:15:23.564Z,2.60
2023-04-10T12:17:51.086Z,3.10
2023-04-10T12:20:17.783Z,3.17
2023-04-10T12:22:45.529Z,4.37
2023-04-10T12:25:12.689Z,2.83
2023-04-10T12:27:39.152Z,2.73
2023-04-10T12:30:08.524Z,2.80
2023-04-10T12:32:35.211Z,2.80
2023-04-10T12:35:02.275Z,3.10
2023-04-10T12:37:48.517Z,3.13
2023-04-10T12:40:15.430Z,2.77
2023-04-10T12:42:43.077Z,2.60
2023-04-10T12:45:12.957Z,2.90
2023-04-10T12:47:48.109Z,3.07
2023-04-10T12:50:19.141Z,3.70
2023-04-10T12:53:01.232Z,2.67
2023-04-10T12:55:29.151Z,3.00
2023-04-10T12:57:56.892Z,3.30
2023-04-10T13:00:23.816Z,2.83
2023-04-10T13:02:50.574Z,2.70
2023-04-10T13:05:17.167Z,2.53
2023-04-10T13:07:43.758Z,2.40
2023-04-10T13:10:11.411Z,2.70
2023-04-10T13:12:39.002Z,2.43
2023-04-10T13:15:07.585Z,2.90
2023-04-10T13:17:34.407Z,2.80
2023-04-10T13:20:01.002Z,3.20
2023-04-10T13:22:27.545Z,3.13
2023-04-10T13:24:54.044Z,3.17
2023-04-10T13:27:20.574Z,2.80
2023-04-10T13:29:47.015Z,2.93
2023-04-10T13:32:13.474Z,2.47
2023-04-10T13:34:39.930Z,2.53
2023-04-10T13:37:06.465Z,2.60
2023-04-10T13:39:33.041Z,2.50
2023-04-10T13:41:59.731Z,2.60
2023-04-10T13:44:26.577Z,3.00
2023-04-10T13:46:53.487Z,2.20
2023-04-10T13:49:22.131Z,2.67
2023-04-10T13:51:48.954Z,5.00
2023-04-10T13:54:17.259Z,3.73
2023-04-10T13:56:44.577Z,2.73
2023-04-10T13:59:11.194Z,2.67
2023-04-10T14:01:38.001Z,2.20
2023-04-10T14:04:04.622Z,2.57
2023-04-10T14:06:31.818Z,2.70
2023-04-10T14:08:58.389Z,2.53
2023-04-10T14:11:25.883Z,2.63
2023-04-10T14:13:52.633Z,2.80
2023-04-10T14:16:19.470Z,2.73
2023-04-10T14:18:45.903Z,2.70
2023-04-10T14:21:12.375Z,2.43
2023-04-10T14:23:38.854Z,2.50
2023-04-10T14:26:06.413Z,2.60
2023-04-10T14:28:33.058Z,2.73
2023-04-10T14:30:59.547Z,2.43
2023-04-10T14:33:26.091Z,2.67
2023-04-10T14:35:53.332Z,6.93
2023-04-10T14:38:19.871Z,4.47
2023-04-10T14:40:49.906Z,3.10
2023-04-10T14:43:17.100Z,2.60
2023-04-10T14:45:43.582Z,2.17
2023-04-10T14:48:12.700Z,2.30
2023-04-10T14:50:39.628Z,2.10
2023-04-10T14:53:06.211Z,2.20
2023-04-10T14:55:32.802Z,2.60
2023-04-10T14:57:59.280Z,2.20
2023-04-10T15:00:25.956Z,2.23
2023-04-10T15:02:52.703Z,2.87
2023-04-10T15:05:19.496Z,2.90
2023-04-10T15:07:45.937Z,2.87
2023-04-10T15:10:12.435Z,3.20
2023-04-10T15:12:39.357Z,2.80
2023-04-10T15:15:06.782Z,2.40
2023-04-10T15:17:33.328Z,2.30
2023-04-10T15:19:59.839Z,2.50
2023-04-10T15:22:26.680Z,2.03
2023-04-10T15:24:53.139Z,2.50
2023-04-10T15:27:21.114Z,2.20
2023-04-10T15:29:48.133Z,2.57
2023-04-10T15:32:14.736Z,1.87
2023-04-10T15:34:45.760Z,1.80
2023-04-10T15:37:12.231Z,2.40
2023-04-10T15:39:38.742Z,2.27
2023-04-10T15:42:06.000Z,13.00
2023-04-10T15:44:32.578Z,4.10
2023-04-10T15:46:59.104Z,3.57
2023-04-10T15:49:36.120Z,2.47
2023-04-10T15:52:08.077Z,2.40
2023-04-10T15:54:34.727Z,2.47
2023-04-10T15:57:02.316Z,2.67
2023-04-10T15:59:28.987Z,2.83
2023-04-10T16:01:55.660Z,3.00
2023-04-10T16:04:22.423Z,3.30
2023-04-10T16:06:49.087Z,6.40
2023-04-10T16:09:25.753Z,3.00
2023-04-10T16:11:53.312Z,2.53
2023-04-10T16:14:20.005Z,6.57
2023-04-10T16:16:46.563Z,4.93
2023-04-10T16:19:12.987Z,3.50
2023-04-10T16:21:39.666Z,2.83
2023-04-10T16:24:06.395Z,2.20
2023-04-10T16:26:32.841Z,2.40
2023-04-10T16:28:59.323Z,2.50
2023-04-10T16:31:25.805Z,2.23
2023-04-10T16:33:52.369Z,2.70
2023-04-10T16:36:18.851Z,2.20
2023-04-10T16:38:45.562Z,2.50
2023-04-10T16:41:12.622Z,2.70
2023-04-10T16:43:39.199Z,2.50
2023-04-10T16:46:06.089Z,2.40
2023-04-10T16:48:36.073Z,3.37
2023-04-10T16:51:06.131Z,3.30
2023-04-10T16:53:35.695Z,3.17
2023-04-10T16:56:04.973Z,4.30
2023-04-10T16:58:33.566Z,16.47
2023-04-10T17:01:00.418Z,17.70
2023-04-10T17:03:28.394Z,4.23
2023-04-10T17:05:55.132Z,3.87
2023-04-10T17:08:21.613Z,3.30
2023-04-10T17:10:48.168Z,2.90
2023-04-10T17:13:14.862Z,3.17
2023-04-10T17:15:41.430Z,3.00
2023-04-10T17:18:08.094Z,3.07
2023-04-10T17:20:37.832Z,3.50
2023-04-10T17:23:04.669Z,4.00
2023-04-10T17:25:31.270Z,3.70
2023-04-10T17:27:58.020Z,4.40
2023-04-10T17:30:24.454Z,3.30
2023-04-10T17:32:51.191Z,3.57
2023-04-10T17:35:17.804Z,4.00
2023-04-10T17:37:44.336Z,6.63
2023-04-10T17:40:11.297Z,14.00
2023-04-10T17:42:37.746Z,4.77
2023-04-10T17:45:04.618Z,4.20
2023-04-10T17:47:31.469Z,3.40
2023-04-10T17:49:58.020Z,3.47
2023-04-10T17:52:24.590Z,3.63
2023-04-10T17:54:51.085Z,3.70
2023-04-10T17:57:17.511Z,3.20
2023-04-10T17:59:44.010Z,3.50
2023-04-10T18:02:10.490Z,2.87
2023-04-10T18:04:36.970Z,3.13
2023-04-10T18:07:03.404Z,4.50
2023-04-10T18:09:29.862Z,3.60
2023-04-10T18:11:56.287Z,3.50
2023-04-10T18:14:22.775Z,3.53
2023-04-10T18:16:49.358Z,3.87
2023-04-10T18:19:15.876Z,5.50
2023-04-10T18:21:42.342Z,7.80
2023-04-10T18:24:12.030Z,4.93
2023-04-10T18:26:38.640Z,4.60
2023-04-10T18:29:05.484Z,4.50
2023-04-10T18:31:32.439Z,4.57
2023-04-10T18:34:07.128Z,3.90
2023-04-10T18:36:35.074Z,4.27
2023-04-10T18:39:01.658Z,3.87
2023-04-10T18:41:28.197Z,4.20
2023-04-10T18:44:04.415Z,4.07
2023-04-10T18:46:32.379Z,3.67
2023-04-10T18:49:01.116Z,4.70
2023-04-10T18:51:28.089Z,4.30
2023-04-10T18:53:54.928Z,3.93
2023-04-10T18:56:21.650Z,4.70
2023-04-10T18:58:49.981Z,4.03
2023-04-10T19:01:17.950Z,4.67
2023-04-10T19:03:47.747Z,3.60
2023-04-10T19:06:17.327Z,3.63
2023-04-10T19:08:43.769Z,3.30
2023-04-10T19:11:10.447Z,3.23
2023-04-10T19:13:36.939Z,3.27
2023-04-10T19:16:04.390Z,3.07
2023-04-10T19:18:31.369Z,4.27
2023-04-10T19:20:59.254Z,3.00
2023-04-10T19:23:26.229Z,3.10
2023-04-10T19:25:54.441Z,3.23
2023-04-10T19:28:23.293Z,3.43
2023-04-10T19:30:50.167Z,2.97
2023-04-10T19:33:17.279Z,3.60
2023-04-10T19:35:44.280Z,3.20
2023-04-10T19:38:10.837Z,3.93
2023-04-10T19:40:37.418Z,2.63
2023-04-10T19:43:04.214Z,2.70
2023-04-10T19:45:32.401Z,2.47
2023-04-10T19:47:59.060Z,3.10
2023-04-10T19:50:28.741Z,6.87
2023-04-10T19:52:55.329Z,2.57
2023-04-10T19:55:21.826Z,2.60
2023-04-10T19:57:49.035Z,2.40
2023-04-10T20:00:16.065Z,2.60
2023-04-10T20:02:42.910Z,2.50
2023-04-10T20:05:10.003Z,2.37
2023-04-10T20:07:36.744Z,2.10
2023-04-10T20:10:04.331Z,10.70
2023-04-10T20:12:34.471Z,4.23
2023-04-10T20:15:02.196Z,12.20
2023-04-10T20:17:28.998Z,2.70
2023-04-10T20:19:55.900Z,1.97
2023-04-10T20:22:22.376Z,2.30
2023-04-10T20:24:48.850Z,2.23
2023-04-10T20:27:15.569Z,2.23
2023-04-10T20:29:42.055Z,2.17
2023-04-10T20:32:09.673Z,2.43
2023-04-10T20:34:36.808Z,2.10
2023-04-10T20:37:03.470Z,2.23
2023-04-10T20:39:30.014Z,2.20
2023-04-10T20:41:57.335Z,2.53
2023-04-10T20:44:24.164Z,2.50
2023-04-10T20:46:50.844Z,2.63
2023-04-10T20:49:17.540Z,1.93
2023-04-10T20:51:44.104Z,2.10
2023-04-10T20:54:11.722Z,1.80
2023-04-10T20:56:43.509Z,1.97
2023-04-10T20:59:11.276Z,1.57
2023-04-10T21:01:38.035Z,1.83
2023-04-10T21:04:05.033Z,1.73
2023-04-10T21:06:34.963Z,1.97
2023-04-10T21:09:01.370Z,1.87
2023-04-10T21:11:28.208Z,1.70
2023-04-10T21:13:54.719Z,1.87
2023-04-10T21:16:21.293Z,1.50
2023-04-10T21:18:47.944Z,2.00
2023-04-10T21:21:14.690Z,2.53
2023-04-10T21:23:41.515Z,2.03
2023-04-10T21:26:08.161Z,2.07
2023-04-10T21:28:34.675Z,3.07
2023-04-10T21:31:01.255Z,2.10
2023-04-10T21:33:27.764Z,1.63
2023-04-10T21:35:54.183Z,1.80
2023-04-10T21:38:20.832Z,1.90
2023-04-10T21:40:54.328Z,1.60
2023-04-10T21:43:21.792Z,2.07
2023-04-10T21:45:48.607Z,1.90
2023-04-10T21:48:15.236Z,1.70
2023-04-10T21:50:41.695Z,1.70
2023-04-10T21:53:08.173Z,1.50
2023-04-10T21:55:34.704Z,1.80
2023-04-10T21:58:01.194Z,1.77
2023-04-10T22:00:28.796Z,1.80
2023-04-10T22:02:55.762Z,1.70
2023-04-10T22:05:24.167Z,1.80
2023-04-10T22:07:51.005Z,2.00
2023-04-10T22:10:17.719Z,1.57
2023-04-10T22:12:45.951Z,1.70
2023-04-10T22:15:14.628Z,1.80
2023-04-10T22:17:41.210Z,1.50
2023-04-10T22:20:08.037Z,2.03
2023-04-10T22:22:34.515Z,1.70
2023-04-10T22:25:00.968Z,1.80
2023-04-10T22:27:27.402Z,1.90
2023-04-10T22:30:03.274Z,1.53
2023-04-10T22:32:31.215Z,1.80
2023-04-10T22:34:59.464Z,2.53
2023-04-10T22:37:26.478Z,1.60
2023-04-10T22:39:53.112Z,1.77
2023-04-10T22:42:19.582Z,1.93
2023-04-10T22:44:46.490Z,1.63
2023-04-10T22:47:13.225Z,1.83
2023-04-10T22:49:39.650Z,2.10
2023-04-10T22:52:06.091Z,2.17
2023-04-10T22:54:32.595Z,2.17
2023-04-10T22:56:59.064Z,1.90
2023-04-10T22:59:25.717Z,2.07
2023-04-10T23:01:52.296Z,2.20
2023-04-10T23:04:18.890Z,2.33
2023-04-10T23:06:45.436Z,2.17
2023-04-10T23:09:11.866Z,2.03
2023-04-10T23:11:38.766Z,2.20
2023-04-10T23:14:05.236Z,2.17
2023-04-10T23:16:31.683Z,2.30
2023-04-10T23:18:58.215Z,2.30
2023-04-10T23:21:24.728Z,1.90
2023-04-10T23:23:51.111Z,2.10
2023-04-10T23:26:17.535Z,1.80
2023-04-10T23:28:44.020Z,2.20
2023-04-10T23:31:10.740Z,2.00
2023-04-10T23:33:37.269Z,1.73
2023-04-10T23:36:04.156Z,1.90
2023-04-10T23:38:30.676Z,1.83
2023-04-10T23:40:57.163Z,1.83
2023-04-10T23:43:23.621Z,1.80
2023-04-10T23:45:50.052Z,1.77
2023-04-10T23:48:16.483Z,1.60
2023-04-10T23:50:42.973Z,1.37
2023-04-10T23:53:09.441Z,1.97
2023-04-10T23:55:36.507Z,1.80
2023-04-10T23:58:03.960Z,1.97
